Hartland, Michigan
Current Conditions -  °F | °C
As of 9:15 PM on Sunday 25 Jan 2015 (Local Time) from KOZW Reporting Station
Clear Clear  
Wind Chill:   Ceiling: Unl
Heat Index: 16°   Visibility: 10mi
Dew Point:   Wind: 8mph
Humidity: 73%   Direction: 30°NNE
Pressure: 29.98"   Gusts: NA
Location:  42.66°N, 83.75°W
Report Text: KOZW 260215Z AUTO 03007KT 10SM CLR M09/M13 A2998 RMK AO2 T10911131
Loading
Personal Weather Stations






























Interactive Weather Map New forecast layout! Learn more

10-Day Weather Forecast

Advertisements
Track Severe Weather on mobile